createdAt,value
2019-06-04T00:00:41.519Z,91837.70
2019-06-04T00:03:11.860Z,91821.85
2019-06-04T00:05:43.057Z,91818.96
2019-06-04T00:08:13.069Z,91879.69
2019-06-04T00:10:42.910Z,91887.59
2019-06-04T00:13:12.689Z,91888.75
2019-06-04T00:15:44.187Z,91892.27
2019-06-04T00:18:14.035Z,91852.08
2019-06-04T00:20:43.763Z,91843.17
2019-06-04T00:23:14.669Z,91845.42
2019-06-04T00:25:44.719Z,91867.23
2019-06-04T00:28:14.577Z,91876.73
2019-06-04T00:30:45.355Z,91894.73
2019-06-04T00:33:15.191Z,91983.58
2019-06-04T00:35:45.047Z,92074.52
2019-06-04T00:38:15.171Z,92099.81
2019-06-04T00:40:47.777Z,92070.67
2019-06-04T00:43:17.583Z,91936.98
2019-06-04T00:45:47.676Z,91781.63
2019-06-04T00:48:17.289Z,91807.34
2019-06-04T00:50:49.768Z,91826.08
2019-06-04T00:53:20.681Z,91846.88
2019-06-04T00:55:52.551Z,91874.88
2019-06-04T00:58:27.809Z,91932.23
2019-06-04T01:00:57.777Z,92000.31
2019-06-04T01:03:27.654Z,92080.30
2019-06-04T01:05:57.683Z,92133.52
2019-06-04T01:08:27.496Z,92139.48
2019-06-04T01:10:58.670Z,92119.33
2019-06-04T01:13:30.290Z,92200.81
2019-06-04T01:16:00.180Z,92244.47
2019-06-04T01:18:30.435Z,92317.45
2019-06-04T01:21:00.789Z,92369.83
2019-06-04T01:23:31.428Z,92428.76
2019-06-04T01:26:01.480Z,92471.76
2019-06-04T01:28:31.973Z,92484.88
2019-06-04T01:31:03.028Z,92507.88
2019-06-04T01:33:40.034Z,92479.47
2019-06-04T01:36:06.886Z,92449.80
2019-06-04T01:38:36.903Z,92400.14
2019-06-04T01:41:07.609Z,92373.97
2019-06-04T01:43:38.799Z,92349.36
2019-06-04T01:46:09.841Z,92372.30
2019-06-04T01:48:39.904Z,92417.65
2019-06-04T01:51:10.293Z,92476.52
2019-06-04T01:53:40.362Z,92460.05
2019-06-04T01:56:11.155Z,92452.98
2019-06-04T01:58:40.952Z,92464.44
2019-06-04T02:01:11.179Z,92473.56
2019-06-04T02:03:42.034Z,92472.72
2019-06-04T02:06:12.022Z,92458.75
2019-06-04T02:08:42.010Z,92494.21
2019-06-04T02:11:14.528Z,92526.13
2019-06-04T02:13:45.680Z,92543.95
2019-06-04T02:16:22.252Z,92541.70
2019-06-04T02:18:47.032Z,92566.88
2019-06-04T02:21:18.261Z,92609.90
2019-06-04T02:23:48.303Z,92691.87
2019-06-04T02:26:19.193Z,92735.34
2019-06-04T02:28:49.097Z,92718.48
2019-06-04T02:31:19.925Z,92661.33
2019-06-04T02:33:52.467Z,92623.48
2019-06-04T02:36:22.738Z,92663.58
2019-06-04T02:38:53.750Z,92642.89
2019-06-04T02:41:23.653Z,92639.45
2019-06-04T02:43:56.100Z,92576.64
2019-06-04T02:46:26.316Z,92542.58
2019-06-04T02:48:57.106Z,92582.56
2019-06-04T02:51:28.541Z,92614.38
2019-06-04T02:54:00.317Z,92661.30
2019-06-04T02:56:34.892Z,92712.88
2019-06-04T02:59:06.382Z,92724.86
2019-06-04T03:01:36.224Z,92719.58
2019-06-04T03:04:06.016Z,92722.84
2019-06-04T03:06:35.867Z,92781.69
2019-06-04T03:09:09.368Z,92792.77
2019-06-04T03:11:39.212Z,92852.83
2019-06-04T03:14:09.538Z,92872.16
2019-06-04T03:16:39.537Z,92830.93
2019-06-04T03:19:10.299Z,92809.86
2019-06-04T03:21:40.202Z,92803.27
2019-06-04T03:24:10.979Z,92783.16
2019-06-04T03:26:41.683Z,92740.11
2019-06-04T03:29:11.552Z,92719.19
2019-06-04T03:31:41.862Z,92686.31
2019-06-04T03:34:12.986Z,92701.16
2019-06-04T03:36:44.087Z,92647.42
2019-06-04T03:39:14.052Z,92565.55
2019-06-04T03:41:43.948Z,92498.00
2019-06-04T03:44:14.067Z,92434.98
2019-06-04T03:46:43.903Z,92320.23
2019-06-04T03:49:14.169Z,92171.89
2019-06-04T03:51:44.596Z,92055.98
2019-06-04T03:54:14.857Z,91971.16
2019-06-04T03:56:44.781Z,91893.21
2019-06-04T03:59:14.639Z,91922.42
2019-06-04T04:01:46.112Z,91857.53
2019-06-04T04:04:16.409Z,91813.05
2019-06-04T04:06:48.326Z,91799.52
2019-06-04T04:09:18.535Z,91638.80
2019-06-04T04:11:48.592Z,91495.33
2019-06-04T04:14:18.938Z,91193.30
2019-06-04T04:16:50.575Z,91094.73
2019-06-04T04:19:23.231Z,91154.84
2019-06-04T04:21:53.397Z,90993.06
2019-06-04T04:24:23.252Z,90860.23
2019-06-04T04:26:53.173Z,90817.30
2019-06-04T04:29:23.735Z,90746.47
2019-06-04T04:31:54.874Z,90630.67
2019-06-04T04:34:33.978Z,90384.50
2019-06-04T04:36:57.551Z,90130.66
2019-06-04T04:39:28.090Z,89744.84
2019-06-04T04:41:58.139Z,89156.86
2019-06-04T04:44:28.506Z,88588.80
2019-06-04T04:46:58.467Z,88004.22
2019-06-04T04:49:32.505Z,87464.75
2019-06-04T04:51:59.866Z,87176.09
2019-06-04T04:54:30.175Z,86829.56
2019-06-04T04:57:00.143Z,86493.92
2019-06-04T04:59:31.235Z,86235.63
2019-06-04T05:02:01.155Z,86247.48
2019-06-04T05:04:48.103Z,86472.70
2019-06-04T05:07:03.411Z,86646.70
2019-06-04T05:09:33.862Z,86701.27
2019-06-04T05:12:04.180Z,86911.38
2019-06-04T05:14:34.676Z,86850.06
2019-06-04T05:17:05.104Z,86901.84
2019-06-04T05:19:35.068Z,87004.21
2019-06-04T05:22:04.979Z,87116.35
2019-06-04T05:24:34.874Z,87082.10
2019-06-04T05:27:04.744Z,87010.86
2019-06-04T05:29:34.576Z,86992.44
2019-06-04T05:32:04.408Z,86814.92
2019-06-04T05:34:34.249Z,86626.41
2019-06-04T05:37:04.214Z,86500.66
2019-06-04T05:39:34.198Z,86392.41
2019-06-04T05:42:04.096Z,86243.36
2019-06-04T05:44:33.929Z,86015.82
2019-06-04T05:47:03.750Z,85760.53
2019-06-04T05:49:33.558Z,85531.83
2019-06-04T05:52:04.933Z,85412.55
2019-06-04T05:54:34.851Z,85226.71
2019-06-04T05:57:04.679Z,85041.85
2019-06-04T05:59:34.490Z,84804.60
2019-06-04T06:02:04.262Z,84499.20
2019-06-04T06:04:34.303Z,84172.56
2019-06-04T06:07:04.976Z,83792.22
2019-06-04T06:09:36.321Z,83275.39
2019-06-04T06:12:06.283Z,82855.16
2019-06-04T06:14:36.183Z,81848.66
2019-06-04T06:17:06.149Z,78374.86
2019-06-04T06:19:36.866Z,72274.05
2019-06-04T06:22:09.062Z,65554.05
2019-06-04T06:24:38.910Z,59579.94
2019-06-04T06:27:12.036Z,57216.54
2019-06-04T06:29:43.352Z,57543.31
2019-06-04T06:32:13.112Z,59282.26
2019-06-04T06:34:45.349Z,61929.46
2019-06-04T06:37:16.018Z,64001.61
2019-06-04T06:39:47.485Z,64961.27
2019-06-04T06:42:18.720Z,66146.92
2019-06-04T06:44:49.118Z,64994.89
2019-06-04T06:47:19.111Z,63256.48
2019-06-04T06:49:49.121Z,61039.10
2019-06-04T06:52:18.948Z,59887.79
2019-06-04T06:54:50.287Z,59749.77
2019-06-04T06:57:20.257Z,58467.29
2019-06-04T06:59:50.097Z,58963.99
2019-06-04T07:02:24.926Z,60909.41
2019-06-04T07:04:54.739Z,60417.21
2019-06-04T07:07:26.986Z,59985.34
2019-06-04T07:09:56.914Z,59912.66
2019-06-04T07:12:30.684Z,59265.91
2019-06-04T07:15:03.352Z,59324.15
2019-06-04T07:17:33.456Z,58914.34
2019-06-04T07:20:04.473Z,57985.22
2019-06-04T07:22:35.456Z,56885.82
2019-06-04T07:25:08.378Z,56958.48
2019-06-04T07:27:40.370Z,56773.38
2019-06-04T07:30:11.578Z,56365.63
2019-06-04T07:32:42.546Z,56033.52
2019-06-04T07:35:13.171Z,56439.32
2019-06-04T07:37:43.043Z,56650.34
2019-06-04T07:40:15.591Z,57484.02
2019-06-04T07:42:45.430Z,56973.96
2019-06-04T07:45:16.603Z,56373.73
2019-06-04T07:47:46.459Z,56662.96
2019-06-04T07:50:16.441Z,57199.72
2019-06-04T07:52:46.559Z,56957.55
2019-06-04T07:55:18.272Z,56307.26
2019-06-04T07:57:48.639Z,55994.87
2019-06-04T08:00:21.589Z,55909.84
2019-06-04T08:02:52.654Z,57071.72
2019-06-04T08:05:23.341Z,55867.61
2019-06-04T08:07:53.106Z,55701.10
2019-06-04T08:10:23.937Z,55221.40
2019-06-04T08:12:53.770Z,54954.92
2019-06-04T08:15:24.806Z,54748.86
2019-06-04T08:17:54.628Z,55370.46
2019-06-04T08:20:24.459Z,55673.93
2019-06-04T08:22:54.287Z,55282.61
2019-06-04T08:25:25.168Z,55931.25
2019-06-04T08:27:55.138Z,55605.66
2019-06-04T08:30:24.963Z,54936.66
2019-06-04T08:32:54.992Z,54424.55
2019-06-04T08:35:24.821Z,54176.41
2019-06-04T08:37:54.639Z,53907.51
2019-06-04T08:40:25.555Z,54577.33
2019-06-04T08:42:55.349Z,56585.15
2019-06-04T08:45:25.195Z,56565.13
2019-06-04T08:47:55.472Z,56355.28
2019-06-04T08:50:26.266Z,56055.62
2019-06-04T08:52:56.007Z,55831.32
2019-06-04T08:55:38.523Z,55983.34
2019-06-04T08:58:11.560Z,56540.19
2019-06-04T09:00:44.486Z,56415.14
2019-06-04T09:03:16.001Z,56632.89
2019-06-04T09:05:46.352Z,57086.48
2019-06-04T09:08:16.450Z,58633.57
2019-06-04T09:10:48.726Z,58146.57
2019-06-04T09:13:20.180Z,57917.54
2019-06-04T09:15:55.355Z,57806.42
2019-06-04T09:18:21.704Z,57522.34
2019-06-04T09:20:52.348Z,58737.07
2019-06-04T09:23:22.362Z,58045.72
2019-06-04T09:25:53.839Z,57448.56
2019-06-04T09:28:25.493Z,57181.17
2019-06-04T09:31:02.539Z,56620.00
2019-06-04T09:33:28.598Z,56029.17
2019-06-04T09:35:59.371Z,55726.49
2019-06-04T09:38:29.089Z,55897.70
2019-06-04T09:40:58.897Z,58736.21
2019-06-04T09:43:28.920Z,55784.08
2019-06-04T09:45:58.809Z,56803.16
2019-06-04T09:48:28.997Z,56311.19
2019-06-04T09:51:00.462Z,56064.40
2019-06-04T09:53:32.894Z,56228.30
2019-06-04T09:56:04.835Z,55924.70
2019-06-04T09:58:35.450Z,56032.27
2019-06-04T10:01:06.646Z,58432.58
2019-06-04T10:03:38.513Z,61490.99
2019-06-04T10:06:08.331Z,62398.46
2019-06-04T10:08:38.333Z,62681.46
2019-06-04T10:11:09.606Z,62056.93
2019-06-04T10:13:39.595Z,62229.05
2019-06-04T10:16:09.475Z,63746.79
2019-06-04T10:18:39.327Z,64757.21
2019-06-04T10:21:09.180Z,65200.44
2019-06-04T10:23:39.396Z,65516.15
2019-06-04T10:26:23.836Z,65687.91
2019-06-04T10:28:40.935Z,65881.89
2019-06-04T10:31:10.736Z,66145.06
2019-06-04T10:33:40.641Z,66416.41
2019-06-04T10:36:10.477Z,66241.57
2019-06-04T10:38:40.470Z,65665.21
2019-06-04T10:41:10.348Z,65962.69
2019-06-04T10:43:40.324Z,65256.13
2019-06-04T10:46:10.431Z,65029.05
2019-06-04T10:48:40.529Z,65122.75
2019-06-04T10:51:14.466Z,65368.85
2019-06-04T10:53:44.604Z,64968.35
2019-06-04T10:56:14.448Z,65209.45
2019-06-04T10:58:45.293Z,65330.55
2019-06-04T11:01:15.169Z,65806.49
2019-06-04T11:03:45.149Z,66099.67
2019-06-04T11:06:15.118Z,66017.94
2019-06-04T11:08:50.067Z,65662.53
2019-06-04T11:11:16.657Z,64745.05
2019-06-04T11:13:46.501Z,63090.13
2019-06-04T11:16:17.486Z,61379.60
2019-06-04T11:18:50.233Z,60171.55
2019-06-04T11:21:37.764Z,59136.52
2019-06-04T11:23:54.813Z,58966.84
2019-06-04T11:26:24.792Z,58945.14
2019-06-04T11:28:55.298Z,58561.85
2019-06-04T11:31:25.186Z,57627.84
2019-06-04T11:34:18.500Z,58653.04
2019-06-04T11:36:30.497Z,59375.78
2019-06-04T11:39:13.195Z,59569.71
2019-06-04T11:41:31.923Z,59314.07
2019-06-04T11:44:01.853Z,60222.35
2019-06-04T11:46:31.959Z,61333.52
2019-06-04T11:49:02.049Z,62352.56
2019-06-04T11:51:31.906Z,63022.19
2019-06-04T11:54:03.367Z,64761.47
2019-06-04T11:56:34.180Z,66903.56
2019-06-04T11:59:05.258Z,68636.28
2019-06-04T12:01:35.334Z,70778.28
2019-06-04T12:04:05.295Z,70971.75
2019-06-04T12:06:35.212Z,70958.67
2019-06-04T12:09:29.053Z,70489.30
2019-06-04T12:11:39.814Z,69972.44
2019-06-04T12:14:09.673Z,69509.84
2019-06-04T12:16:39.941Z,69083.84
2019-06-04T12:19:11.273Z,68332.89
2019-06-04T12:21:41.030Z,67561.38
2019-06-04T12:24:10.688Z,67465.22
2019-06-04T12:26:40.467Z,66986.61
2019-06-04T12:29:10.306Z,68019.28
2019-06-04T12:31:40.134Z,69047.88
2019-06-04T12:34:10.034Z,70365.56
2019-06-04T12:36:40.050Z,72517.13
2019-06-04T12:39:09.975Z,73892.23
2019-06-04T12:41:39.973Z,74885.88
2019-06-04T12:44:14.407Z,76305.81
2019-06-04T12:46:41.564Z,78326.44
2019-06-04T12:49:11.401Z,79351.80
2019-06-04T12:51:43.144Z,79802.80
2019-06-04T12:54:17.882Z,79765.48
2019-06-04T12:56:45.477Z,79299.08
2019-06-04T12:59:20.560Z,78878.11
2019-06-04T13:01:51.050Z,78448.58
2019-06-04T13:04:21.995Z,77250.43
2019-06-04T13:06:53.117Z,76841.61
2019-06-04T13:09:23.799Z,76283.19
2019-06-04T13:11:53.588Z,75739.12
2019-06-04T13:14:23.671Z,74890.33
2019-06-04T13:16:53.515Z,74500.16
2019-06-04T13:19:23.811Z,74153.28
2019-06-04T13:21:53.792Z,74043.77
2019-06-04T13:24:23.853Z,73698.16
2019-06-04T13:26:53.829Z,74599.52
2019-06-04T13:29:42.927Z,74374.56
2019-06-04T13:31:55.249Z,74740.64
2019-06-04T13:34:25.357Z,74717.14
2019-06-04T13:36:56.154Z,74256.33
2019-06-04T13:39:29.613Z,74291.74
2019-06-04T13:41:57.410Z,75611.19
2019-06-04T13:44:27.237Z,75680.64
2019-06-04T13:46:57.077Z,75755.00
2019-06-04T13:49:34.241Z,76113.59
2019-06-04T13:51:58.833Z,76566.31
2019-06-04T13:54:28.663Z,77062.36
2019-06-04T13:56:59.349Z,76764.65
2019-06-04T13:59:30.293Z,76488.50
2019-06-04T14:02:00.131Z,77239.70
2019-06-04T14:04:32.947Z,77835.00
2019-06-04T14:07:03.077Z,78187.80
2019-06-04T14:09:33.143Z,78764.39
2019-06-04T14:12:03.991Z,78999.39
2019-06-04T14:14:34.318Z,79013.69
2019-06-04T14:17:04.387Z,79699.55
2019-06-04T14:19:34.191Z,79662.02
2019-06-04T14:22:05.038Z,80032.05
2019-06-04T14:24:35.140Z,80809.20
2019-06-04T14:27:07.561Z,81760.97
2019-06-04T14:29:37.547Z,82430.88
2019-06-04T14:32:09.673Z,82762.93
2019-06-04T14:34:40.155Z,82979.06
2019-06-04T14:37:11.989Z,82695.58
2019-06-04T14:39:42.145Z,82667.06
2019-06-04T14:42:13.036Z,82303.50
2019-06-04T14:44:42.845Z,82098.47
2019-06-04T14:47:13.939Z,82082.83
2019-06-04T14:49:43.761Z,81871.06
2019-06-04T14:52:14.235Z,81856.99
2019-06-04T14:54:44.221Z,82092.20
2019-06-04T14:57:14.791Z,81796.59
2019-06-04T14:59:47.207Z,81597.28
2019-06-04T15:02:17.879Z,81226.00
2019-06-04T15:04:47.681Z,80643.29
2019-06-04T15:07:21.786Z,80255.84
2019-06-04T15:09:49.412Z,79884.12
2019-06-04T15:12:19.720Z,79466.80
2019-06-04T15:14:49.717Z,79020.71
2019-06-04T15:17:20.829Z,79160.58
2019-06-04T15:19:50.811Z,78264.52
2019-06-04T15:22:22.156Z,77975.23
2019-06-04T15:24:51.830Z,77399.25
2019-06-04T15:27:21.652Z,77079.25
2019-06-04T15:29:51.441Z,77025.00
2019-06-04T15:32:22.191Z,77241.12
2019-06-04T15:34:52.345Z,77411.55
2019-06-04T15:37:23.861Z,77450.75
2019-06-04T15:39:53.797Z,77477.55
2019-06-04T15:42:23.625Z,77453.94
2019-06-04T15:44:53.479Z,77351.93
2019-06-04T15:47:27.033Z,77199.24
2019-06-04T15:49:56.953Z,76945.79
2019-06-04T15:52:26.796Z,77060.33
2019-06-04T15:54:57.333Z,77039.91
2019-06-04T15:57:28.731Z,77156.20
2019-06-04T15:59:58.467Z,77511.55
2019-06-04T16:02:29.394Z,77698.23
2019-06-04T16:04:59.211Z,77672.08
2019-06-04T16:07:30.740Z,77696.14
2019-06-04T16:10:00.717Z,77737.27
2019-06-04T16:12:32.284Z,77689.31
2019-06-04T16:15:02.148Z,77852.58
2019-06-04T16:17:33.268Z,77966.42
2019-06-04T16:20:03.919Z,78097.57
2019-06-04T16:22:35.131Z,78258.83
2019-06-04T16:25:06.755Z,78314.45
2019-06-04T16:27:36.605Z,78556.88
2019-06-04T16:30:07.510Z,78640.30
2019-06-04T16:32:40.951Z,78663.53
2019-06-04T16:35:09.550Z,78723.58
2019-06-04T16:37:40.426Z,78737.63
2019-06-04T16:40:10.284Z,78786.30
2019-06-04T16:42:41.796Z,78919.41
2019-06-04T16:45:13.834Z,79001.12
2019-06-04T16:47:43.887Z,79018.16
2019-06-04T16:50:13.797Z,79024.30
2019-06-04T16:52:43.821Z,79031.30
2019-06-04T16:55:13.675Z,78988.71
2019-06-04T16:57:43.444Z,78970.40
2019-06-04T17:00:13.261Z,78971.43
2019-06-04T17:02:43.165Z,78878.32
2019-06-04T17:05:13.139Z,78765.63
2019-06-04T17:07:43.906Z,78712.17
2019-06-04T17:10:16.807Z,78630.44
2019-06-04T17:12:52.165Z,78479.40
2019-06-04T17:15:18.296Z,78383.75
2019-06-04T17:17:48.388Z,78340.45
2019-06-04T17:20:18.237Z,78232.44
2019-06-04T17:22:48.105Z,78108.00
2019-06-04T17:25:17.919Z,78188.80
2019-06-04T17:27:48.227Z,78243.29
2019-06-04T17:30:19.227Z,78385.97
2019-06-04T17:32:49.042Z,78575.23
2019-06-04T17:35:19.915Z,78850.59
2019-06-04T17:37:49.740Z,79122.48
2019-06-04T17:40:22.388Z,79397.03
2019-06-04T17:43:05.346Z,79669.85
2019-06-04T17:45:25.410Z,79906.53
2019-06-04T17:47:56.309Z,80156.00
2019-06-04T17:50:26.397Z,80366.00
2019-06-04T17:52:57.170Z,80554.84
2019-06-04T17:55:28.916Z,80680.10
2019-06-04T17:57:58.818Z,80812.08
2019-06-04T18:00:33.536Z,80917.76
2019-06-04T18:03:05.616Z,80976.63
2019-06-04T18:05:38.378Z,81070.17
2019-06-04T18:08:08.379Z,81128.05
2019-06-04T18:10:39.403Z,81209.75
2019-06-04T18:13:24.197Z,81294.61
2019-06-04T18:15:40.853Z,81368.45
2019-06-04T18:18:10.774Z,81494.20
2019-06-04T18:20:40.651Z,81606.35
2019-06-04T18:23:10.640Z,81694.67
2019-06-04T18:25:41.316Z,81778.74
2019-06-04T18:28:12.606Z,81880.05
2019-06-04T18:30:42.460Z,81974.54
2019-06-04T18:33:13.627Z,82092.52
2019-06-04T18:35:43.521Z,82187.08
2019-06-04T18:38:13.365Z,82288.16
2019-06-04T18:40:43.330Z,82431.25
2019-06-04T18:43:13.243Z,82633.92
2019-06-04T18:45:44.616Z,82713.55
2019-06-04T18:48:14.461Z,82790.94
2019-06-04T18:50:44.776Z,82834.92
2019-06-04T18:53:14.658Z,82896.44
2019-06-04T18:55:45.884Z,82961.85
2019-06-04T18:58:17.167Z,83088.96
2019-06-04T19:00:47.021Z,83246.18
2019-06-04T19:03:19.063Z,83289.11
2019-06-04T19:05:48.947Z,83302.71
2019-06-04T19:08:20.357Z,83473.94
2019-06-04T19:10:50.947Z,83637.11
2019-06-04T19:13:20.785Z,83840.37
2019-06-04T19:15:50.807Z,83993.44
2019-06-04T19:18:20.625Z,84099.92
2019-06-04T19:20:50.485Z,84265.58
2019-06-04T19:23:20.335Z,84422.77
2019-06-04T19:25:50.844Z,84469.45
2019-06-04T19:28:20.694Z,84615.48
2019-06-04T19:30:50.549Z,84685.02
2019-06-04T19:33:20.401Z,84756.93
2019-06-04T19:35:51.827Z,84845.54
2019-06-04T19:38:21.633Z,84981.70
2019-06-04T19:40:52.350Z,85123.98
2019-06-04T19:43:25.206Z,85318.27
2019-06-04T19:45:55.748Z,85427.72
2019-06-04T19:48:26.171Z,85511.58
2019-06-04T19:50:57.616Z,85597.61
2019-06-04T19:53:27.632Z,85693.18
2019-06-04T19:55:57.859Z,85835.86
2019-06-04T19:58:32.869Z,85914.83
2019-06-04T20:01:04.623Z,86215.27
2019-06-04T20:03:35.554Z,86254.34
2019-06-04T20:06:05.823Z,86507.49
2019-06-04T20:08:36.158Z,86627.77
2019-06-04T20:11:08.962Z,86745.25
2019-06-04T20:13:45.145Z,86783.86
2019-06-04T20:16:11.710Z,86777.03
2019-06-04T20:18:42.638Z,86771.48
2019-06-04T20:21:13.496Z,86957.77
2019-06-04T20:23:44.204Z,87127.28
2019-06-04T20:26:14.175Z,87036.30
2019-06-04T20:28:44.568Z,86798.09
2019-06-04T20:31:14.476Z,86847.04
2019-06-04T20:33:46.888Z,86962.84
2019-06-04T20:36:18.652Z,87081.78
2019-06-04T20:38:49.442Z,87336.59
2019-06-04T20:41:19.401Z,87597.41
2019-06-04T20:43:50.140Z,87910.38
2019-06-04T20:46:20.560Z,88173.42
2019-06-04T20:49:09.379Z,88173.42
2019-06-04T20:51:25.554Z,88134.25
2019-06-04T20:53:54.967Z,88157.13
2019-06-04T20:56:25.276Z,88128.30
2019-06-04T20:58:56.336Z,88138.38
2019-06-04T21:01:27.045Z,88202.84
2019-06-04T21:03:58.355Z,88331.95
2019-06-04T21:06:28.101Z,88331.95
2019-06-04T21:09:02.091Z,88353.06
2019-06-04T21:11:31.841Z,88353.06
2019-06-04T21:14:01.659Z,88152.25
2019-06-04T21:16:31.494Z,88028.50
2019-06-04T21:19:01.313Z,88349.64
2019-06-04T21:21:31.178Z,88349.64
2019-06-04T21:24:01.053Z,88496.75
2019-06-04T21:26:33.604Z,88545.66
2019-06-04T21:29:03.563Z,88568.44
2019-06-04T21:31:33.532Z,88641.52
2019-06-04T21:34:03.479Z,88665.41
2019-06-04T21:36:33.725Z,88791.53
2019-06-04T21:39:03.693Z,88865.97
2019-06-04T21:41:33.626Z,88931.95
2019-06-04T21:44:03.419Z,88942.06
2019-06-04T21:46:33.285Z,89040.02
2019-06-04T21:49:03.129Z,89148.00
2019-06-04T21:51:33.860Z,89234.09
2019-06-04T21:54:03.770Z,89190.96
2019-06-04T21:56:33.685Z,89266.07
2019-06-04T21:59:04.854Z,89365.77
2019-06-04T22:01:34.908Z,89453.31
2019-06-04T22:04:04.826Z,89497.28
2019-06-04T22:06:34.673Z,89512.15
2019-06-04T22:09:07.837Z,89485.41
2019-06-04T22:11:37.846Z,89442.63
2019-06-04T22:14:07.710Z,89486.14
2019-06-04T22:16:37.486Z,89588.37
2019-06-04T22:19:07.351Z,89569.05
2019-06-04T22:21:37.152Z,89685.24
2019-06-04T22:24:07.039Z,89853.46
2019-06-04T22:26:36.838Z,89827.52
2019-06-04T22:29:06.647Z,89843.90
2019-06-04T22:31:36.524Z,89768.80
2019-06-04T22:34:06.387Z,89722.05
2019-06-04T22:36:36.177Z,89674.02
2019-06-04T22:39:07.396Z,89691.16
2019-06-04T22:41:37.325Z,89739.73
2019-06-04T22:44:07.201Z,89786.92
2019-06-04T22:46:37.037Z,89860.80
2019-06-04T22:49:06.841Z,89970.69
2019-06-04T22:51:36.655Z,90068.45
2019-06-04T22:54:06.507Z,90136.14
2019-06-04T22:56:37.354Z,90136.22
2019-06-04T22:59:07.139Z,90165.75
2019-06-04T23:01:37.360Z,90249.45
2019-06-04T23:04:07.229Z,90283.98
2019-06-04T23:06:37.061Z,90314.70
2019-06-04T23:09:07.367Z,90296.46
2019-06-04T23:11:37.211Z,90274.98
2019-06-04T23:14:07.465Z,90278.50
2019-06-04T23:16:39.478Z,90326.41
2019-06-04T23:19:09.369Z,90326.53
2019-06-04T23:21:41.216Z,90362.62
2019-06-04T23:24:11.038Z,90394.27
2019-06-04T23:26:40.865Z,90428.75
2019-06-04T23:29:10.753Z,90434.48
2019-06-04T23:31:41.908Z,90419.80
2019-06-04T23:34:12.735Z,90407.62
2019-06-04T23:36:42.881Z,90393.13
2019-06-04T23:39:12.709Z,90387.34
2019-06-04T23:41:42.499Z,90448.94
2019-06-04T23:44:12.383Z,90425.48
2019-06-04T23:46:55.519Z,90485.22
2019-06-04T23:49:14.891Z,90492.66
2019-06-04T23:51:44.920Z,90496.93
2019-06-04T23:54:14.705Z,90519.73
2019-06-04T23:56:44.496Z,90520.56
2019-06-04T23:59:14.392Z,90582.39
